sensor_id;sensor_type;location;lat;lon;timestamp;temperature;humidity
1415;DHT22;702;49.466;11.086;2024-03-25T00:00:49;5.00;87.40
1415;DHT22;702;49.466;11.086;2024-03-25T00:03:15;5.00;87.40
1415;DHT22;702;49.466;11.086;2024-03-25T00:05:43;5.00;87.50
1415;DHT22;702;49.466;11.086;2024-03-25T00:08:09;5.00;87.50
1415;DHT22;702;49.466;11.086;2024-03-25T00:10:37;5.00;87.70
1415;DHT22;702;49.466;11.086;2024-03-25T00:13:03;5.00;87.60
1415;DHT22;702;49.466;11.086;2024-03-25T00:15:30;5.00;87.70
1415;DHT22;702;49.466;11.086;2024-03-25T00:17:58;5.10;87.80
1415;DHT22;702;49.466;11.086;2024-03-25T00:20:26;5.00;87.50
1415;DHT22;702;49.466;11.086;2024-03-25T00:22:53;5.00;87.80
1415;DHT22;702;49.466;11.086;2024-03-25T00:25:21;5.00;87.80
1415;DHT22;702;49.466;11.086;2024-03-25T00:27:47;5.10;87.50
1415;DHT22;702;49.466;11.086;2024-03-25T00:30:16;5.10;87.20
1415;DHT22;702;49.466;11.086;2024-03-25T00:32:43;5.10;87.10
1415;DHT22;702;49.466;11.086;2024-03-25T00:35:12;5.10;87.20
1415;DHT22;702;49.466;11.086;2024-03-25T00:37:38;5.10;87.10
1415;DHT22;702;49.466;11.086;2024-03-25T00:40:07;5.10;87.10
1415;DHT22;702;49.466;11.086;2024-03-25T00:42:34;5.10;86.90
1415;DHT22;702;49.466;11.086;2024-03-25T00:45:02;5.20;86.70
1415;DHT22;702;49.466;11.086;2024-03-25T00:47:31;5.10;86.70
1415;DHT22;702;49.466;11.086;2024-03-25T00:49:58;5.20;86.50
1415;DHT22;702;49.466;11.086;2024-03-25T00:52:26;5.20;86.50
1415;DHT22;702;49.466;11.086;2024-03-25T00:54:53;5.20;86.30
1415;DHT22;702;49.466;11.086;2024-03-25T00:57:20;5.20;86.00
1415;DHT22;702;49.466;11.086;2024-03-25T00:59:47;5.20;85.60
1415;DHT22;702;49.466;11.086;2024-03-25T01:02:14;5.20;85.70
1415;DHT22;702;49.466;11.086;2024-03-25T01:04:42;5.20;85.30
1415;DHT22;702;49.466;11.086;2024-03-25T01:07:10;5.20;85.00
1415;DHT22;702;49.466;11.086;2024-03-25T01:09:38;5.20;85.00
1415;DHT22;702;49.466;11.086;2024-03-25T01:12:05;5.20;85.00
1415;DHT22;702;49.466;11.086;2024-03-25T01:14:33;5.30;84.90
1415;DHT22;702;49.466;11.086;2024-03-25T01:16:59;5.30;84.60
1415;DHT22;702;49.466;11.086;2024-03-25T01:19:26;5.20;84.40
1415;DHT22;702;49.466;11.086;2024-03-25T01:21:52;5.30;84.40
1415;DHT22;702;49.466;11.086;2024-03-25T01:24:20;5.30;84.10
1415;DHT22;702;49.466;11.086;2024-03-25T01:26:49;5.20;84.20
1415;DHT22;702;49.466;11.086;2024-03-25T01:29:16;5.30;84.30
1415;DHT22;702;49.466;11.086;2024-03-25T01:31:45;5.30;83.60
1415;DHT22;702;49.466;11.086;2024-03-25T01:34:12;5.30;83.60
1415;DHT22;702;49.466;11.086;2024-03-25T01:36:38;5.30;83.60
1415;DHT22;702;49.466;11.086;2024-03-25T01:39:07;5.30;83.10
1415;DHT22;702;49.466;11.086;2024-03-25T01:41:34;5.30;83.00
1415;DHT22;702;49.466;11.086;2024-03-25T01:44:03;5.30;83.20
1415;DHT22;702;49.466;11.086;2024-03-25T01:46:29;5.20;83.20
1415;DHT22;702;49.466;11.086;2024-03-25T01:48:57;5.30;82.80
1415;DHT22;702;49.466;11.086;2024-03-25T01:51:24;5.30;82.90
1415;DHT22;702;49.466;11.086;2024-03-25T01:53:53;5.30;82.70
1415;DHT22;702;49.466;11.086;2024-03-25T01:56:22;5.30;82.70
1415;DHT22;702;49.466;11.086;2024-03-25T01:58:51;5.30;82.60
1415;DHT22;702;49.466;11.086;2024-03-25T02:01:19;5.30;82.50
1415;DHT22;702;49.466;11.086;2024-03-25T02:03:47;5.20;82.20
1415;DHT22;702;49.466;11.086;2024-03-25T02:06:16;5.20;82.20
1415;DHT22;702;49.466;11.086;2024-03-25T02:08:44;5.20;82.30
1415;DHT22;702;49.466;11.086;2024-03-25T02:11:11;5.20;82.30
1415;DHT22;702;49.466;11.086;2024-03-25T02:13:40;5.10;82.40
1415;DHT22;702;49.466;11.086;2024-03-25T02:16:07;5.10;82.40
1415;DHT22;702;49.466;11.086;2024-03-25T02:18:39;5.20;82.10
1415;DHT22;702;49.466;11.086;2024-03-25T02:21:12;5.20;82.10
1415;DHT22;702;49.466;11.086;2024-03-25T02:23:39;5.20;82.30
1415;DHT22;702;49.466;11.086;2024-03-25T02:26:09;5.20;82.30
1415;DHT22;702;49.466;11.086;2024-03-25T02:28:37;5.20;81.90
1415;DHT22;702;49.466;11.086;2024-03-25T02:31:03;5.20;81.80
1415;DHT22;702;49.466;11.086;2024-03-25T02:33:31;5.20;81.70
1415;DHT22;702;49.466;11.086;2024-03-25T02:35:57;5.20;81.70
1415;DHT22;702;49.466;11.086;2024-03-25T02:38:25;5.30;81.20
1415;DHT22;702;49.466;11.086;2024-03-25T02:40:52;5.30;81.10
1415;DHT22;702;49.466;11.086;2024-03-25T02:43:21;5.30;81.20
1415;DHT22;702;49.466;11.086;2024-03-25T02:45:48;5.30;81.10
1415;DHT22;702;49.466;11.086;2024-03-25T02:48:15;5.30;81.30
1415;DHT22;702;49.466;11.086;2024-03-25T02:50:42;5.30;81.40
1415;DHT22;702;49.466;11.086;2024-03-25T02:53:09;5.30;81.20
1415;DHT22;702;49.466;11.086;2024-03-25T02:55:37;5.30;81.30
1415;DHT22;702;49.466;11.086;2024-03-25T02:58:04;5.30;81.60
1415;DHT22;702;49.466;11.086;2024-03-25T03:00:32;5.30;81.70
1415;DHT22;702;49.466;11.086;2024-03-25T03:02:59;5.30;81.80
1415;DHT22;702;49.466;11.086;2024-03-25T03:05:25;5.30;81.90
1415;DHT22;702;49.466;11.086;2024-03-25T03:07:54;5.20;81.80
1415;DHT22;702;49.466;11.086;2024-03-25T03:10:20;5.20;81.70
1415;DHT22;702;49.466;11.086;2024-03-25T03:12:48;5.20;81.90
1415;DHT22;702;49.466;11.086;2024-03-25T03:15:15;5.20;81.90
1415;DHT22;702;49.466;11.086;2024-03-25T03:17:44;5.20;82.00
1415;DHT22;702;49.466;11.086;2024-03-25T03:20:11;5.20;82.10
1415;DHT22;702;49.466;11.086;2024-03-25T03:22:38;5.20;81.70
1415;DHT22;702;49.466;11.086;2024-03-25T03:25:06;5.20;82.00
1415;DHT22;702;49.466;11.086;2024-03-25T03:27:33;5.20;82.10
1415;DHT22;702;49.466;11.086;2024-03-25T03:30:00;5.20;82.30
1415;DHT22;702;49.466;11.086;2024-03-25T03:32:27;5.20;82.10
1415;DHT22;702;49.466;11.086;2024-03-25T03:34:55;5.20;82.20
1415;DHT22;702;49.466;11.086;2024-03-25T03:37:22;5.20;82.30
1415;DHT22;702;49.466;11.086;2024-03-25T03:39:48;5.10;82.40
1415;DHT22;702;49.466;11.086;2024-03-25T03:42:16;5.10;82.40
1415;DHT22;702;49.466;11.086;2024-03-25T03:44:42;5.00;82.70
1415;DHT22;702;49.466;11.086;2024-03-25T03:47:09;5.00;82.80
1415;DHT22;702;49.466;11.086;2024-03-25T03:49:36;4.90;83.20
1415;DHT22;702;49.466;11.086;2024-03-25T03:52:05;4.90;83.20
1415;DHT22;702;49.466;11.086;2024-03-25T03:54:32;4.90;83.30
1415;DHT22;702;49.466;11.086;2024-03-25T03:56:59;4.90;83.20
1415;DHT22;702;49.466;11.086;2024-03-25T03:59:26;4.90;83.60
1415;DHT22;702;49.466;11.086;2024-03-25T04:01:53;4.80;83.60
1415;DHT22;702;49.466;11.086;2024-03-25T04:04:19;4.80;83.80
1415;DHT22;702;49.466;11.086;2024-03-25T04:06:48;4.80;83.70
1415;DHT22;702;49.466;11.086;2024-03-25T04:09:16;4.80;83.80
1415;DHT22;702;49.466;11.086;2024-03-25T04:11:43;4.70;84.30
1415;DHT22;702;49.466;11.086;2024-03-25T04:14:10;4.60;84.40
1415;DHT22;702;49.466;11.086;2024-03-25T04:16:38;4.60;85.00
1415;DHT22;702;49.466;11.086;2024-03-25T04:19:04;4.60;85.30
1415;DHT22;702;49.466;11.086;2024-03-25T04:21:31;4.60;85.30
1415;DHT22;702;49.466;11.086;2024-03-25T04:23:58;4.50;85.60
1415;DHT22;702;49.466;11.086;2024-03-25T04:26:26;4.60;85.70
1415;DHT22;702;49.466;11.086;2024-03-25T04:28:53;4.60;85.40
1415;DHT22;702;49.466;11.086;2024-03-25T04:31:21;4.60;85.40
1415;DHT22;702;49.466;11.086;2024-03-25T04:33:47;4.60;85.30
1415;DHT22;702;49.466;11.086;2024-03-25T04:36:16;4.60;85.10
1415;DHT22;702;49.466;11.086;2024-03-25T04:38:42;4.60;84.90
1415;DHT22;702;49.466;11.086;2024-03-25T04:41:09;4.50;85.30
1415;DHT22;702;49.466;11.086;2024-03-25T04:43:37;4.50;85.30
1415;DHT22;702;49.466;11.086;2024-03-25T04:46:03;4.60;85.30
1415;DHT22;702;49.466;11.086;2024-03-25T04:48:30;4.60;85.00
1415;DHT22;702;49.466;11.086;2024-03-25T04:50:56;4.60;85.00
1415;DHT22;702;49.466;11.086;2024-03-25T04:53:23;4.60;84.50
1415;DHT22;702;49.466;11.086;2024-03-25T04:55:49;4.60;84.80
1415;DHT22;702;49.466;11.086;2024-03-25T04:58:15;4.60;84.70
1415;DHT22;702;49.466;11.086;2024-03-25T05:00:43;4.60;84.10
1415;DHT22;702;49.466;11.086;2024-03-25T05:03:09;4.50;84.40
1415;DHT22;702;49.466;11.086;2024-03-25T05:05:35;4.50;84.40
1415;DHT22;702;49.466;11.086;2024-03-25T05:08:02;4.50;84.30
1415;DHT22;702;49.466;11.086;2024-03-25T05:10:29;4.50;84.50
1415;DHT22;702;49.466;11.086;2024-03-25T05:12:55;4.50;84.30
1415;DHT22;702;49.466;11.086;2024-03-25T05:15:21;4.60;84.30
1415;DHT22;702;49.466;11.086;2024-03-25T05:17:51;4.60;84.30
1415;DHT22;702;49.466;11.086;2024-03-25T05:20:18;4.50;83.90
1415;DHT22;702;49.466;11.086;2024-03-25T05:22:44;4.60;83.90
1415;DHT22;702;49.466;11.086;2024-03-25T05:25:11;4.60;83.80
1415;DHT22;702;49.466;11.086;2024-03-25T05:27:37;4.60;83.90
1415;DHT22;702;49.466;11.086;2024-03-25T05:30:04;4.60;83.60
1415;DHT22;702;49.466;11.086;2024-03-25T05:32:31;4.50;83.70
1415;DHT22;702;49.466;11.086;2024-03-25T05:34:59;4.60;83.90
1415;DHT22;702;49.466;11.086;2024-03-25T05:37:25;4.60;83.50
1415;DHT22;702;49.466;11.086;2024-03-25T05:39:51;4.60;83.30
1415;DHT22;702;49.466;11.086;2024-03-25T05:42:17;4.70;83.70
1415;DHT22;702;49.466;11.086;2024-03-25T05:44:45;4.70;83.40
1415;DHT22;702;49.466;11.086;2024-03-25T05:47:12;4.70;83.10
1415;DHT22;702;49.466;11.086;2024-03-25T05:49:38;4.70;82.80
1415;DHT22;702;49.466;11.086;2024-03-25T05:52:06;4.70;82.70
1415;DHT22;702;49.466;11.086;2024-03-25T05:54:32;4.70;82.60
1415;DHT22;702;49.466;11.086;2024-03-25T05:56:59;4.60;82.70
1415;DHT22;702;49.466;11.086;2024-03-25T05:59:25;4.60;83.20
1415;DHT22;702;49.466;11.086;2024-03-25T06:01:51;4.70;82.90
1415;DHT22;702;49.466;11.086;2024-03-25T06:04:19;4.80;83.10
1415;DHT22;702;49.466;11.086;2024-03-25T06:06:45;5.10;85.30
1415;DHT22;702;49.466;11.086;2024-03-25T06:09:13;5.10;82.80
1415;DHT22;702;49.466;11.086;2024-03-25T06:11:40;5.10;82.90
1415;DHT22;702;49.466;11.086;2024-03-25T06:14:06;5.10;82.50
1415;DHT22;702;49.466;11.086;2024-03-25T06:16:33;5.00;82.20
1415;DHT22;702;49.466;11.086;2024-03-25T06:18:59;5.00;82.30
1415;DHT22;702;49.466;11.086;2024-03-25T06:21:33;5.00;82.20
1415;DHT22;702;49.466;11.086;2024-03-25T06:24:00;4.90;81.50
1415;DHT22;702;49.466;11.086;2024-03-25T06:26:28;4.80;81.40
1415;DHT22;702;49.466;11.086;2024-03-25T06:28:55;4.70;81.70
1415;DHT22;702;49.466;11.086;2024-03-25T06:31:22;4.70;81.90
1415;DHT22;702;49.466;11.086;2024-03-25T06:34:06;4.80;82.00
1415;DHT22;702;49.466;11.086;2024-03-25T06:36:43;4.90;81.60
1415;DHT22;702;49.466;11.086;2024-03-25T06:39:10;5.00;81.30
1415;DHT22;702;49.466;11.086;2024-03-25T06:41:38;5.10;80.90
1415;DHT22;702;49.466;11.086;2024-03-25T06:44:05;5.40;80.60
1415;DHT22;702;49.466;11.086;2024-03-25T06:46:31;5.80;80.00
1415;DHT22;702;49.466;11.086;2024-03-25T06:48:58;6.00;78.80
1415;DHT22;702;49.466;11.086;2024-03-25T06:51:24;6.00;78.00
1415;DHT22;702;49.466;11.086;2024-03-25T06:53:51;6.00;77.00
1415;DHT22;702;49.466;11.086;2024-03-25T06:56:17;5.90;76.90
1415;DHT22;702;49.466;11.086;2024-03-25T06:58:45;5.70;77.00
1415;DHT22;702;49.466;11.086;2024-03-25T07:01:11;5.80;77.20
1415;DHT22;702;49.466;11.086;2024-03-25T07:03:38;5.90;77.10
1415;DHT22;702;49.466;11.086;2024-03-25T07:06:05;6.10;76.20
1415;DHT22;702;49.466;11.086;2024-03-25T07:08:32;6.20;76.10
1415;DHT22;702;49.466;11.086;2024-03-25T07:10:58;6.40;76.00
1415;DHT22;702;49.466;11.086;2024-03-25T07:13:24;6.40;74.90
1415;DHT22;702;49.466;11.086;2024-03-25T07:15:53;6.50;74.90
1415;DHT22;702;49.466;11.086;2024-03-25T07:18:19;6.50;74.20
1415;DHT22;702;49.466;11.086;2024-03-25T07:20:45;6.30;73.20
1415;DHT22;702;49.466;11.086;2024-03-25T07:23:12;6.20;72.90
1415;DHT22;702;49.466;11.086;2024-03-25T07:25:38;6.30;73.40
1415;DHT22;702;49.466;11.086;2024-03-25T07:28:05;6.60;73.30
1415;DHT22;702;49.466;11.086;2024-03-25T07:30:31;6.80;72.30
1415;DHT22;702;49.466;11.086;2024-03-25T07:32:59;6.70;71.60
1415;DHT22;702;49.466;11.086;2024-03-25T07:35:26;6.60;71.50
1415;DHT22;702;49.466;11.086;2024-03-25T07:37:52;6.70;71.30
1415;DHT22;702;49.466;11.086;2024-03-25T07:40:19;7.10;72.20
1415;DHT22;702;49.466;11.086;2024-03-25T07:42:45;7.50;69.50
1415;DHT22;702;49.466;11.086;2024-03-25T07:45:12;7.50;68.70
1415;DHT22;702;49.466;11.086;2024-03-25T07:47:38;7.40;68.30
1415;DHT22;702;49.466;11.086;2024-03-25T07:50:07;7.10;67.60
1415;DHT22;702;49.466;11.086;2024-03-25T07:52:34;6.90;68.00
1415;DHT22;702;49.466;11.086;2024-03-25T07:55:01;6.80;68.40
1415;DHT22;702;49.466;11.086;2024-03-25T07:57:27;6.80;68.70
1415;DHT22;702;49.466;11.086;2024-03-25T07:59:54;6.80;68.90
1415;DHT22;702;49.466;11.086;2024-03-25T08:02:20;6.80;68.80
1415;DHT22;702;49.466;11.086;2024-03-25T08:04:47;6.70;68.10
1415;DHT22;702;49.466;11.086;2024-03-25T08:07:15;6.70;68.00
1415;DHT22;702;49.466;11.086;2024-03-25T08:09:41;6.80;67.00
1415;DHT22;702;49.466;11.086;2024-03-25T08:12:08;6.80;67.20
1415;DHT22;702;49.466;11.086;2024-03-25T08:14:34;6.90;66.80
1415;DHT22;702;49.466;11.086;2024-03-25T08:17:01;7.00;66.20
1415;DHT22;702;49.466;11.086;2024-03-25T08:19:27;7.10;65.90
1415;DHT22;702;49.466;11.086;2024-03-25T08:21:53;7.30;66.40
1415;DHT22;702;49.466;11.086;2024-03-25T08:24:21;7.50;65.40
1415;DHT22;702;49.466;11.086;2024-03-25T08:26:48;7.50;65.00
1415;DHT22;702;49.466;11.086;2024-03-25T08:29:14;7.40;64.70
1415;DHT22;702;49.466;11.086;2024-03-25T08:31:40;7.40;64.50
1415;DHT22;702;49.466;11.086;2024-03-25T08:34:07;7.40;64.60
1415;DHT22;702;49.466;11.086;2024-03-25T08:36:33;7.30;63.70
1415;DHT22;702;49.466;11.086;2024-03-25T08:38:59;7.20;64.10
1415;DHT22;702;49.466;11.086;2024-03-25T08:41:26;7.10;64.00
1415;DHT22;702;49.466;11.086;2024-03-25T08:43:53;7.10;64.10
1415;DHT22;702;49.466;11.086;2024-03-25T08:46:19;7.00;64.20
1415;DHT22;702;49.466;11.086;2024-03-25T08:48:45;7.20;64.60
1415;DHT22;702;49.466;11.086;2024-03-25T08:51:12;7.20;63.80
1415;DHT22;702;49.466;11.086;2024-03-25T08:53:38;7.30;63.20
1415;DHT22;702;49.466;11.086;2024-03-25T08:56:05;7.50;63.90
1415;DHT22;702;49.466;11.086;2024-03-25T08:58:33;7.60;63.40
1415;DHT22;702;49.466;11.086;2024-03-25T09:00:59;7.60;61.60
1415;DHT22;702;49.466;11.086;2024-03-25T09:03:25;7.80;61.00
1415;DHT22;702;49.466;11.086;2024-03-25T09:05:52;8.00;60.50
1415;DHT22;702;49.466;11.086;2024-03-25T09:08:18;8.20;59.70
1415;DHT22;702;49.466;11.086;2024-03-25T09:10:45;8.30;60.00
1415;DHT22;702;49.466;11.086;2024-03-25T09:13:32;8.30;60.10
1415;DHT22;702;49.466;11.086;2024-03-25T09:15:58;8.20;60.10
1415;DHT22;702;49.466;11.086;2024-03-25T09:18:25;8.10;60.60
1415;DHT22;702;49.466;11.086;2024-03-25T09:20:51;8.10;61.50
1415;DHT22;702;49.466;11.086;2024-03-25T09:23:18;8.10;61.40
1415;DHT22;702;49.466;11.086;2024-03-25T09:25:51;8.00;61.40
1415;DHT22;702;49.466;11.086;2024-03-25T09:28:18;8.00;61.10
1415;DHT22;702;49.466;11.086;2024-03-25T09:30:45;8.50;61.00
1415;DHT22;702;49.466;11.086;2024-03-25T09:33:13;9.00;59.60
1415;DHT22;702;49.466;11.086;2024-03-25T09:35:39;9.30;59.00
1415;DHT22;702;49.466;11.086;2024-03-25T09:38:06;9.40;58.00
1415;DHT22;702;49.466;11.086;2024-03-25T09:40:35;9.50;58.20
1415;DHT22;702;49.466;11.086;2024-03-25T09:43:02;9.70;58.70
1415;DHT22;702;49.466;11.086;2024-03-25T09:45:29;9.50;58.90
1415;DHT22;702;49.466;11.086;2024-03-25T09:47:57;9.70;59.10
1415;DHT22;702;49.466;11.086;2024-03-25T09:50:24;9.50;58.70
1415;DHT22;702;49.466;11.086;2024-03-25T09:52:51;9.40;57.70
1415;DHT22;702;49.466;11.086;2024-03-25T09:55:18;9.20;57.10
1415;DHT22;702;49.466;11.086;2024-03-25T09:57:45;9.30;57.00
1415;DHT22;702;49.466;11.086;2024-03-25T10:00:12;9.40;56.90
1415;DHT22;702;49.466;11.086;2024-03-25T10:02:41;9.50;55.70
1415;DHT22;702;49.466;11.086;2024-03-25T10:05:09;9.70;54.70
1415;DHT22;702;49.466;11.086;2024-03-25T10:07:36;9.90;54.50
1415;DHT22;702;49.466;11.086;2024-03-25T10:10:07;10.30;53.50
1415;DHT22;702;49.466;11.086;2024-03-25T10:12:36;10.80;55.10
1415;DHT22;702;49.466;11.086;2024-03-25T10:15:03;10.80;53.10
1415;DHT22;702;49.466;11.086;2024-03-25T10:17:30;10.90;53.20
1415;DHT22;702;49.466;11.086;2024-03-25T10:19:57;10.90;53.80
1415;DHT22;702;49.466;11.086;2024-03-25T10:22:24;10.60;54.40
1415;DHT22;702;49.466;11.086;2024-03-25T10:24:51;10.00;54.90
1415;DHT22;702;49.466;11.086;2024-03-25T10:27:18;10.20;54.70
1415;DHT22;702;49.466;11.086;2024-03-25T10:29:46;10.20;53.80
1415;DHT22;702;49.466;11.086;2024-03-25T10:32:13;10.20;52.50
1415;DHT22;702;49.466;11.086;2024-03-25T10:34:39;10.00;53.70
1415;DHT22;702;49.466;11.086;2024-03-25T10:37:09;10.00;55.00
1415;DHT22;702;49.466;11.086;2024-03-25T10:39:39;9.50;56.40
1415;DHT22;702;49.466;11.086;2024-03-25T10:42:12;9.40;56.70
1415;DHT22;702;49.466;11.086;2024-03-25T10:44:40;9.40;56.60
1415;DHT22;702;49.466;11.086;2024-03-25T10:47:08;9.30;56.00
1415;DHT22;702;49.466;11.086;2024-03-25T10:49:38;9.60;55.80
1415;DHT22;702;49.466;11.086;2024-03-25T10:52:11;9.70;54.10
1415;DHT22;702;49.466;11.086;2024-03-25T10:54:39;9.60;53.20
1415;DHT22;702;49.466;11.086;2024-03-25T10:57:07;9.60;53.00
1415;DHT22;702;49.466;11.086;2024-03-25T10:59:35;9.70;52.70
1415;DHT22;702;49.466;11.086;2024-03-25T11:02:03;9.80;51.70
1415;DHT22;702;49.466;11.086;2024-03-25T11:04:31;9.90;52.00
1415;DHT22;702;49.466;11.086;2024-03-25T11:07:07;10.00;50.80
1415;DHT22;702;49.466;11.086;2024-03-25T11:09:33;10.30;50.00
1415;DHT22;702;49.466;11.086;2024-03-25T11:12:01;10.40;49.00
1415;DHT22;702;49.466;11.086;2024-03-25T11:14:28;10.60;49.20
1415;DHT22;702;49.466;11.086;2024-03-25T11:16:55;10.60;49.90
1415;DHT22;702;49.466;11.086;2024-03-25T11:19:25;10.80;50.10
1415;DHT22;702;49.466;11.086;2024-03-25T11:21:53;10.90;48.30
1415;DHT22;702;49.466;11.086;2024-03-25T11:24:27;10.70;48.60
1415;DHT22;702;49.466;11.086;2024-03-25T11:26:54;10.70;49.40
1415;DHT22;702;49.466;11.086;2024-03-25T11:29:22;10.60;51.00
1415;DHT22;702;49.466;11.086;2024-03-25T11:31:49;10.50;51.40
1415;DHT22;702;49.466;11.086;2024-03-25T11:34:16;10.30;51.10
1415;DHT22;702;49.466;11.086;2024-03-25T11:36:42;10.40;51.00
1415;DHT22;702;49.466;11.086;2024-03-25T11:39:09;10.40;51.30
1415;DHT22;702;49.466;11.086;2024-03-25T11:41:39;10.20;50.50
1415;DHT22;702;49.466;11.086;2024-03-25T11:44:05;10.00;51.10
1415;DHT22;702;49.466;11.086;2024-03-25T11:46:36;9.90;51.60
1415;DHT22;702;49.466;11.086;2024-03-25T11:49:04;10.20;51.20
1415;DHT22;702;49.466;11.086;2024-03-25T11:51:32;10.30;50.60
1415;DHT22;702;49.466;11.086;2024-03-25T11:53:59;10.30;50.70
1415;DHT22;702;49.466;11.086;2024-03-25T11:56:25;10.60;50.00
1415;DHT22;702;49.466;11.086;2024-03-25T11:58:52;10.60;49.70
1415;DHT22;702;49.466;11.086;2024-03-25T12:01:18;10.90;49.20
1415;DHT22;702;49.466;11.086;2024-03-25T12:03:46;10.90;49.50
1415;DHT22;702;49.466;11.086;2024-03-25T12:06:13;10.90;49.10
1415;DHT22;702;49.466;11.086;2024-03-25T12:08:39;10.90;48.60
1415;DHT22;702;49.466;11.086;2024-03-25T12:11:06;11.20;48.30
1415;DHT22;702;49.466;11.086;2024-03-25T12:13:44;11.40;48.40
1415;DHT22;702;49.466;11.086;2024-03-25T12:16:11;11.50;47.90
1415;DHT22;702;49.466;11.086;2024-03-25T12:18:40;12.00;46.20
1415;DHT22;702;49.466;11.086;2024-03-25T12:21:10;12.20;44.50
1415;DHT22;702;49.466;11.086;2024-03-25T12:23:36;12.30;43.30
1415;DHT22;702;49.466;11.086;2024-03-25T12:26:04;11.90;43.80
1415;DHT22;702;49.466;11.086;2024-03-25T12:28:31;11.80;44.00
1415;DHT22;702;49.466;11.086;2024-03-25T12:30:57;11.80;44.00
1415;DHT22;702;49.466;11.086;2024-03-25T12:33:24;11.90;43.90
1415;DHT22;702;49.466;11.086;2024-03-25T12:35:51;12.10;44.30
1415;DHT22;702;49.466;11.086;2024-03-25T12:38:24;12.00;44.30
1415;DHT22;702;49.466;11.086;2024-03-25T12:40:51;12.10;44.50
1415;DHT22;702;49.466;11.086;2024-03-25T12:43:17;11.90;44.30
1415;DHT22;702;49.466;11.086;2024-03-25T12:45:44;11.90;43.70
1415;DHT22;702;49.466;11.086;2024-03-25T12:48:11;11.60;43.20
1415;DHT22;702;49.466;11.086;2024-03-25T12:50:37;11.50;43.20
1415;DHT22;702;49.466;11.086;2024-03-25T12:53:04;11.10;43.20
1415;DHT22;702;49.466;11.086;2024-03-25T12:55:32;11.00;41.60
1415;DHT22;702;49.466;11.086;2024-03-25T12:57:59;11.20;42.20
1415;DHT22;702;49.466;11.086;2024-03-25T13:00:25;11.30;42.60
1415;DHT22;702;49.466;11.086;2024-03-25T13:02:52;11.10;42.70
1415;DHT22;702;49.466;11.086;2024-03-25T13:05:18;11.10;43.30
1415;DHT22;702;49.466;11.086;2024-03-25T13:07:44;11.50;42.70
1415;DHT22;702;49.466;11.086;2024-03-25T13:10:10;11.40;42.70
1415;DHT22;702;49.466;11.086;2024-03-25T13:12:38;11.00;42.00
1415;DHT22;702;49.466;11.086;2024-03-25T13:15:05;11.10;43.30
1415;DHT22;702;49.466;11.086;2024-03-25T13:17:32;11.30;43.10
1415;DHT22;702;49.466;11.086;2024-03-25T13:19:59;11.10;42.90
1415;DHT22;702;49.466;11.086;2024-03-25T13:22:25;11.30;43.40
1415;DHT22;702;49.466;11.086;2024-03-25T13:24:52;11.50;42.80
1415;DHT22;702;49.466;11.086;2024-03-25T13:27:18;11.50;42.60
1415;DHT22;702;49.466;11.086;2024-03-25T13:29:46;11.50;41.80
1415;DHT22;702;49.466;11.086;2024-03-25T13:32:12;11.70;42.00
1415;DHT22;702;49.466;11.086;2024-03-25T13:34:39;11.70;41.80
1415;DHT22;702;49.466;11.086;2024-03-25T13:37:05;11.50;41.50
1415;DHT22;702;49.466;11.086;2024-03-25T13:39:32;11.50;41.70
1415;DHT22;702;49.466;11.086;2024-03-25T13:41:58;11.50;42.40
1415;DHT22;702;49.466;11.086;2024-03-25T13:44:24;11.50;43.30
1415;DHT22;702;49.466;11.086;2024-03-25T13:46:52;11.40;42.70
1415;DHT22;702;49.466;11.086;2024-03-25T13:49:18;11.40;43.10
1415;DHT22;702;49.466;11.086;2024-03-25T13:51:44;11.40;42.90
1415;DHT22;702;49.466;11.086;2024-03-25T13:54:11;11.50;42.80
1415;DHT22;702;49.466;11.086;2024-03-25T13:56:37;11.60;42.50
1415;DHT22;702;49.466;11.086;2024-03-25T13:59:03;11.40;42.40
1415;DHT22;702;49.466;11.086;2024-03-25T14:01:30;11.30;42.20
1415;DHT22;702;49.466;11.086;2024-03-25T14:03:57;11.40;41.90
1415;DHT22;702;49.466;11.086;2024-03-25T14:06:24;11.50;42.50
1415;DHT22;702;49.466;11.086;2024-03-25T14:08:51;11.40;42.10
1415;DHT22;702;49.466;11.086;2024-03-25T14:11:18;11.50;41.90
1415;DHT22;702;49.466;11.086;2024-03-25T14:13:46;11.30;41.50
1415;DHT22;702;49.466;11.086;2024-03-25T14:16:12;10.80;41.70
1415;DHT22;702;49.466;11.086;2024-03-25T14:18:38;10.70;42.00
1415;DHT22;702;49.466;11.086;2024-03-25T14:21:06;10.80;42.40
1415;DHT22;702;49.466;11.086;2024-03-25T14:23:33;11.10;41.50
1415;DHT22;702;49.466;11.086;2024-03-25T14:25:59;11.30;41.40
1415;DHT22;702;49.466;11.086;2024-03-25T14:28:26;11.50;41.00
1415;DHT22;702;49.466;11.086;2024-03-25T14:30:52;11.70;40.40
1415;DHT22;702;49.466;11.086;2024-03-25T14:33:19;11.50;40.30
1415;DHT22;702;49.466;11.086;2024-03-25T14:35:46;11.50;40.60
1415;DHT22;702;49.466;11.086;2024-03-25T14:38:14;11.70;41.10
1415;DHT22;702;49.466;11.086;2024-03-25T14:40:40;11.80;41.50
1415;DHT22;702;49.466;11.086;2024-03-25T14:43:07;11.90;41.10
1415;DHT22;702;49.466;11.086;2024-03-25T14:45:34;11.90;40.90
1415;DHT22;702;49.466;11.086;2024-03-25T14:48:00;11.90;41.30
1415;DHT22;702;49.466;11.086;2024-03-25T14:50:26;11.90;41.40
1415;DHT22;702;49.466;11.086;2024-03-25T14:52:52;11.90;41.20
1415;DHT22;702;49.466;11.086;2024-03-25T14:55:20;12.00;41.50
1415;DHT22;702;49.466;11.086;2024-03-25T14:57:47;11.90;41.20
1415;DHT22;702;49.466;11.086;2024-03-25T15:00:14;11.90;41.40
1415;DHT22;702;49.466;11.086;2024-03-25T15:02:41;11.90;41.20
1415;DHT22;702;49.466;11.086;2024-03-25T15:05:07;11.80;40.90
1415;DHT22;702;49.466;11.086;2024-03-25T15:07:34;11.60;40.40
1415;DHT22;702;49.466;11.086;2024-03-25T15:10:00;11.60;41.00
1415;DHT22;702;49.466;11.086;2024-03-25T15:12:27;11.40;40.70
1415;DHT22;702;49.466;11.086;2024-03-25T15:14:54;11.30;40.40
1415;DHT22;702;49.466;11.086;2024-03-25T15:17:20;11.20;40.70
1415;DHT22;702;49.466;11.086;2024-03-25T15:19:47;11.30;41.20
1415;DHT22;702;49.466;11.086;2024-03-25T15:22:13;11.20;40.90
1415;DHT22;702;49.466;11.086;2024-03-25T15:24:39;11.30;41.00
1415;DHT22;702;49.466;11.086;2024-03-25T15:27:06;11.30;41.10
1415;DHT22;702;49.466;11.086;2024-03-25T15:29:33;11.40;41.10
1415;DHT22;702;49.466;11.086;2024-03-25T15:32:00;11.40;41.40
1415;DHT22;702;49.466;11.086;2024-03-25T15:34:26;11.30;41.30
1415;DHT22;702;49.466;11.086;2024-03-25T15:36:52;11.20;41.40
1415;DHT22;702;49.466;11.086;2024-03-25T15:39:19;11.20;41.20
1415;DHT22;702;49.466;11.086;2024-03-25T15:41:45;11.20;41.30
1415;DHT22;702;49.466;11.086;2024-03-25T15:44:14;11.10;41.80
1415;DHT22;702;49.466;11.086;2024-03-25T15:46:42;11.20;41.60
1415;DHT22;702;49.466;11.086;2024-03-25T15:49:08;11.30;41.50
1415;DHT22;702;49.466;11.086;2024-03-25T15:51:35;11.20;41.60
1415;DHT22;702;49.466;11.086;2024-03-25T15:54:01;11.10;41.40
1415;DHT22;702;49.466;11.086;2024-03-25T15:56:28;10.90;40.90
1415;DHT22;702;49.466;11.086;2024-03-25T15:58:54;11.00;41.00
1415;DHT22;702;49.466;11.086;2024-03-25T16:01:21;11.00;41.00
1415;DHT22;702;49.466;11.086;2024-03-25T16:03:48;10.90;40.60
1415;DHT22;702;49.466;11.086;2024-03-25T16:06:14;10.70;40.40
1415;DHT22;702;49.466;11.086;2024-03-25T16:08:41;10.80;40.60
1415;DHT22;702;49.466;11.086;2024-03-25T16:11:14;10.90;41.00